• Join FlightAware (Why Join?)
  • Login
  • US Flag 
07:17PM EDT


 

Airport Tracker/Info


-or-


 

Live Flight TrackerFlight Track Log ✈ SWA318 ✈ 08-Apr-2013 ✈ KMKE - KLAS

Flight Track Log - Related Links

Times and Time Zones

All times are in EDT time to prevent confusion due to time zone crossing. See the SWA318 flight status page for this flight to view local times or setup timezone preferences in your user account.

Time Position Orientation Groundspeed Altitude Reporting Facility
EDT Latitude Longitude Course Direction KTS MPH feet Rate Location/Type
08:27AM 42.9500 -87.8833 90° East 158 182 1,900  Level KMKE
08:27AM 42.9500 -87.8667 90° East 160 184 2,000 1,200 Climbing KMKE
08:28AM 43.0047 -87.8589 North 277 319 3,400 2,220 Climbing Chicago Center
08:29AM 43.0167 -87.9833 278° West 290 334 6,700 2,640 Climbing KMKE
08:31AM 43.0553 -88.1586 287° West 295 339 11,300 2,640 Climbing Minneapolis Center
08:32AM 43.0253 -88.2906 253° West 310 357 14,200 2,760 Climbing Minneapolis Center
08:33AM 43.0011 -88.4061 254° West 314 361 17,000 2,400 Climbing Minneapolis Center
08:34AM 42.9764 -88.5244 254° West 320 368 19,200 1,980 Climbing Minneapolis Center
08:35AM 42.9667 -88.6572 264° West 344 396 21,100 1,080 Climbing Minneapolis Center
08:36AM 42.9553 -88.7942 264° West 358 412 21,500 780 Climbing Minneapolis Center
08:37AM 42.9425 -88.9503 264° West 402 463 22,800 1,260 Climbing Minneapolis Center
08:38AM 42.9253 -89.1250 262° West 417 480 24,200 1,620 Climbing Minneapolis Center
08:39AM 42.9067 -89.2675 260° West 421 484 26,200 1,620 Climbing Minneapolis Center
08:40AM 42.9072 -89.4278 270° West 425 489 27,500 1,080 Climbing Minneapolis Center
08:41AM 42.9208 -89.5944 276° West 438 504 28,500 1,080 Climbing Minneapolis Center
08:42AM 42.9356 -89.7628 277° West 443 510 29,800 1,380 Climbing Minneapolis Center
08:43AM 42.9478 -89.9608 275° West 447 514 31,400 1,260 Climbing Minneapolis Center
08:44AM 42.9408 -90.1272 267° West 445 512 32,400 900 Climbing Minneapolis Center
08:45AM 42.9331 -90.2708 266° West 443 510 33,300 960 Climbing Minneapolis Center
08:46AM 42.9244 -90.4367 266° West 443 510 34,400 1,380 Climbing Minneapolis Center
08:47AM 42.9131 -90.4989 256° West 433 498 35,100 1,200 Climbing Chicago Center
08:48AM 42.8836 -90.6481 255° West 411 473 36,000 420 Climbing Chicago Center
08:49AM 42.8572 -90.7936 256° West 401 461 36,000  Level Chicago Center
08:50AM 42.8306 -90.9392 256° West 399 459 36,000  Level Chicago Center
08:51AM 42.8039 -91.0842 256° West 397 457 36,000  Level Chicago Center
08:52AM 42.7708 -91.2581 256° West 397 457 36,000  Level Chicago Center
08:53AM 42.7431 -91.4008 255° West 394 453 36,000  Level Chicago Center
08:54AM 42.7253 -91.4864 254° West 393 452 36,000  Level Minneapolis Center
08:55AM 42.6775 -91.6403 247° West 398 458 36,000  Level Minneapolis Center
08:56AM 42.6303 -91.7531 240° Southwest 387 445 36,000  Level Minneapolis Center
08:56AM 42.6119 -91.8017 243° Southwest 379 436 36,000  Level Chicago Center
08:57AM 42.5658 -91.9269 243° Southwest 374 430 36,000  Level Chicago Center
08:58AM 42.5219 -92.0514 244° Southwest 369 425 36,000  Level Chicago Center
08:59AM 42.4872 -92.1519 245° Southwest 367 422 36,000  Level Minneapolis Center
09:00AM 42.4511 -92.2781 249° West 364 419 36,000  Level Minneapolis Center
09:01AM 42.4308 -92.4106 258° West 363 418 36,000  Level Minneapolis Center
09:02AM 42.4047 -92.5436 255° West 365 420 36,000  Level Minneapolis Center
09:03AM 42.3797 -92.6775 256° West 367 422 36,000  Level Minneapolis Center
09:04AM 42.3433 -92.8631 255° West 368 423 36,000  Level Minneapolis Center
09:05AM 42.3161 -92.9986 255° West 374 430 36,000  Level Minneapolis Center
09:06AM 42.2903 -93.1344 256° West 376 433 36,000  Level Minneapolis Center
09:07AM 42.2644 -93.2692 256° West 374 430 36,000  Level Minneapolis Center
09:08AM 42.2372 -93.4044 255° West 377 434 36,000  Level Minneapolis Center
09:09AM 42.2094 -93.5397 255° West 377 434 36,000  Level Minneapolis Center
09:10AM 42.1833 -93.6733 255° West 373 429 36,000  Level Minneapolis Center
09:11AM 42.1506 -93.8372 255° West 379 436 36,000  Level Minneapolis Center
09:12AM 42.1256 -93.9653 255° West 376 433 36,000  Level Minneapolis Center
09:13AM 42.0961 -94.1014 254° West 378 435 36,000  Level Minneapolis Center
09:14AM 42.0689 -94.2397 255° West 380 437 36,000  Level Minneapolis Center
09:15AM 42.0394 -94.3778 254° West 382 440 36,000  Level Minneapolis Center
09:16AM 42.0042 -94.5456 254° West 386 444 36,000  Level Minneapolis Center
09:17AM 41.9761 -94.6828 255° West 381 438 36,000  Level Minneapolis Center
09:18AM 41.9467 -94.8200 254° West 381 438 36,000  Level Minneapolis Center
09:19AM 41.9178 -94.9583 254° West 383 441 36,000  Level Minneapolis Center
09:20AM 41.8878 -95.0964 254° West 385 443 36,000  Level Minneapolis Center
09:21AM 41.8572 -95.2336 253° West 386 444 36,000  Level Minneapolis Center
09:22AM 41.8272 -95.3722 254° West 386 444 36,000  Level Minneapolis Center
09:23AM 41.7969 -95.5106 254° West 388 447 36,000  Level Minneapolis Center
09:24AM 41.7611 -95.6747 254° West 385 443 36,000  Level Minneapolis Center
09:25AM 41.7311 -95.8075 253° West 376 433 36,000  Level Minneapolis Center
09:26AM 41.7017 -95.9394 253° West 374 430 36,000  Level Minneapolis Center
09:28AM 41.6722 -96.0708 253° West 373 429 36,000  Level Minneapolis Center
09:29AM 41.6436 -96.1972 253° West 375 432 36,000  Level Minneapolis Center
09:30AM 41.6131 -96.3311 253° West 376 433 36,000  Level Minneapolis Center
09:31AM 41.5819 -96.4697 253° West 379 436 36,000  Level Minneapolis Center
09:32AM 41.5442 -96.6311 253° West 383 441 36,000  Level Minneapolis Center
09:33AM 41.5131 -96.7669 253° West 384 442 36,000  Level Minneapolis Center
09:34AM 41.4811 -96.9033 253° West 387 445 36,000  Level Minneapolis Center
09:35AM 41.4486 -97.0394 252° West 386 444 36,000  Level Minneapolis Center
09:36AM 41.4156 -97.1761 252° West 387 445 36,000  Level Minneapolis Center
09:37AM 41.3833 -97.3142 253° West 389 448 36,000  Level Minneapolis Center
09:38AM 41.3497 -97.4539 252° West 393 452 36,000  Level Minneapolis Center
09:39AM 41.3158 -97.5936 252° West 394 453 36,000  Level Minneapolis Center
09:40AM 41.2825 -97.7283 252° West 390 449 36,000  Level Minneapolis Center
09:41AM 41.2386 -97.9106 252° West 374 430 36,000  Level Minneapolis Center
09:42AM 41.2075 -98.0386 252° West 365 420 36,000  Level Minneapolis Center
09:43AM 41.1767 -98.1644 252° West 360 414 36,000  Level Minneapolis Center
09:44AM 41.1450 -98.2903 252° West 359 413 36,000  Level Minneapolis Center
09:45AM 41.1142 -98.4181 252° West 361 415 36,000  Level Minneapolis Center
09:46AM 41.0825 -98.5422 251° West 364 419 36,000  Level Minneapolis Center
09:47AM 41.0508 -98.6714 252° West 367 422 36,000  Level Minneapolis Center
09:48AM 41.0172 -98.8000 251° West 369 425 36,000  Level Minneapolis Center
09:49AM 40.9908 -98.9058 252° West 374 430 36,000  Level Minneapolis Center
09:50AM 40.9439 -99.0900 251° West 378 435 36,000  Level Minneapolis Center
09:51AM 40.9131 -99.2100 251° West 378 435 36,000  Level Minneapolis Center
09:52AM 40.8783 -99.3425 251° West 380 437 36,000  Level Minneapolis Center
09:53AM 40.8444 -99.4756 251° West 380 437 36,000  Level Minneapolis Center
09:54AM 40.8106 -99.6064 251° West 378 435 36,000  Level Minneapolis Center
09:55AM 40.7686 -99.7594 250° West 369 425 36,000  Level Denver Center
09:56AM 40.7372 -99.8747 250° West 367 422 36,000  Level Denver Center
09:57AM 40.7006 -100.0167 251° West 366 421 36,000  Level Denver Center
09:58AM 40.6683 -100.1356 250° West 360 414 36,000  Level Denver Center
09:59AM 40.6375 -100.2503 251° West 348 400 36,000  Level Denver Center
10:00AM 40.6008 -100.3853 250° West 349 402 36,000  Level Denver Center
10:01AM 40.5697 -100.5006 250° West 348 400 36,000  Level Denver Center
10:02AM 40.5383 -100.6164 250° West 347 399 36,000  Level Denver Center
10:04AM 40.5011 -100.7506 250° West 348 400 36,000  Level Denver Center
10:05AM 40.4689 -100.8658 250° West 349 402 36,000  Level Denver Center
10:06AM 40.4458 -100.9856 256° West 352 405 36,000  Level Denver Center
10:07AM 40.4258 -101.1275 260° West 355 409 36,000  Level Denver Center
10:08AM 40.4100 -101.2475 260° West 350 403 36,000  Level Denver Center
10:09AM 40.3939 -101.3686 260° West 351 404 36,000  Level Denver Center
10:10AM 40.3742 -101.5089 260° West 352 405 36,000  Level Denver Center
10:11AM 40.3567 -101.6283 259° West 349 402 36,000  Level Denver Center
10:12AM 40.3372 -101.7694 260° West 351 404 36,000  Level Denver Center
10:13AM 40.3194 -101.8903 259° West 354 407 36,000  Level Denver Center
10:14AM 40.3028 -102.0097 260° West 350 403 36,000  Level Denver Center
10:15AM 40.2814 -102.1511 259° West 356 410 36,000  Level Denver Center
10:16AM 40.2639 -102.2722 259° West 352 405 36,000  Level Denver Center
10:17AM 40.2431 -102.4136 259° West 355 409 36,000  Level Denver Center
10:18AM 40.2261 -102.5361 260° West 356 410 36,000  Level Denver Center
10:19AM 40.2044 -102.6769 259° West 354 407 36,000  Level Denver Center
10:20AM 40.1864 -102.7986 259° West 355 409 36,000  Level Denver Center
10:21AM 40.1658 -102.9247 258° West 352 405 36,000  Level Denver Center
10:22AM 40.1469 -103.0506 259° West 351 404 36,000  Level Denver Center
10:23AM 40.1286 -103.1764 259° West 351 404 36,000  Level Denver Center
10:24AM 40.1078 -103.3017 258° West 351 404 36,000  Level Denver Center
10:25AM 40.0819 -103.4711 259° West 355 409 36,000  Level Denver Center
10:26AM 40.0619 -103.5981 258° West 355 409 36,000  Level Denver Center
10:27AM 40.0447 -103.7031 258° West 353 406 36,000  Level Denver Center
10:28AM 40.0219 -103.8525 259° West 356 410 36,000  Level Denver Center
10:29AM 40.0019 -103.9786 258° West 352 405 36,000  Level Denver Center
10:30AM 39.9811 -104.1053 258° West 356 410 36,000  Level Denver Center
10:31AM 39.9600 -104.2317 258° West 354 407 36,000  Level Denver Center
10:32AM 39.9392 -104.3597 258° West 359 413 36,000  Level Denver Center
10:33AM 39.9136 -104.5081 257° West 359 413 36,000  Level Denver Center
10:34AM 39.8933 -104.6356 258° West 361 415 36,000  Level Denver Center
10:36AM 39.8675 -104.7586 255° West 354 407 36,000  Level Denver Center
10:37AM 39.8436 -104.8867 256° West 363 418 36,000  Level Denver Center
10:38AM 39.8189 -105.0147 256° West 365 420 36,000  Level Denver Center
10:39AM 39.7944 -105.1417 256° West 361 415 36,000  Level Denver Center
10:40AM 39.7647 -105.2919 256° West 366 421 36,000  Level Denver Center
10:41AM 39.7389 -105.4208 255° West 365 420 36,000  Level Denver Center
10:42AM 39.7136 -105.5517 256° West 370 426 36,000  Level Denver Center
10:43AM 39.6867 -105.6833 255° West 370 426 36,000  Level Denver Center
10:44AM 39.6594 -105.8156 255° West 374 430 36,000  Level Denver Center
10:45AM 39.6344 -105.9467 256° West 372 428 36,000  Level Denver Center
10:46AM 39.6083 -106.0769 255° West 372 428 36,000  Level Denver Center
10:47AM 39.5803 -106.2200 256° West 374 430 36,000  Level Denver Center
10:48AM 39.5533 -106.3497 255° West 373 429 36,000  Level Denver Center
10:49AM 39.5261 -106.4786 255° West 371 427 36,000  Level Denver Center
10:50AM 39.4986 -106.6131 255° West 376 433 36,000  Level Denver Center
10:51AM 39.4681 -106.7575 255° West 372 428 36,000  Level Denver Center
10:52AM 39.4422 -106.8806 255° West 369 425 36,000  Level Denver Center
10:53AM 39.4067 -107.0231 252° West 372 428 36,000  Level Denver Center
10:54AM 39.3783 -107.1406 253° West 363 418 36,000  Level Denver Center
10:55AM 39.3422 -107.2800 252° West 365 420 36,000  Level Denver Center
10:56AM 39.3119 -107.4000 252° West 367 422 36,000  Level Denver Center
10:57AM 39.2764 -107.5417 252° West 369 425 36,000  Level Denver Center
10:58AM 39.2447 -107.6636 251° West 372 428 36,000  Level Denver Center
10:59AM 39.2136 -107.7833 251° West 370 426 36,000  Level Denver Center
11:00AM 39.1825 -107.9050 252° West 371 427 36,000  Level Denver Center
11:01AM 39.1450 -108.0458 251° West 371 427 36,000  Level Denver Center
11:02AM 39.1089 -108.1872 252° West 372 428 36,000  Level Denver Center
11:03AM 39.0769 -108.3089 251° West 373 429 36,000  Level Denver Center
11:04AM 39.0397 -108.4494 251° West 371 427 36,000  Level Denver Center
11:05AM 39.0078 -108.5681 251° West 367 422 36,000  Level Denver Center
11:06AM 38.9703 -108.7119 252° West 378 435 36,000  Level Denver Center
11:08AM 38.9361 -108.8381 251° West 388 447 36,000  Level Denver Center
11:09AM 38.9011 -108.9639 250° West 388 447 36,000  Level Denver Center
11:10AM 38.8442 -109.0989 242° Southwest 383 441 36,000  Level Denver Center
11:11AM 38.7969 -109.2133 242° Southwest 379 436 36,000  Level Denver Center
11:12AM 38.7408 -109.3444 241° Southwest 376 433 36,000  Level Denver Center
11:13AM 38.6939 -109.4597 242° Southwest 380 437 36,000  Level Denver Center
11:14AM 38.6364 -109.5908 241° Southwest 378 435 36,000  Level Denver Center
11:15AM 38.5858 -109.7056 241° Southwest 386 444 36,000  Level Denver Center
11:16AM 38.5289 -109.8394 242° Southwest 385 443 36,000  Level Denver Center
11:17AM 38.4794 -109.9533 241° Southwest 381 438 36,000 -720 Level Denver Center
11:18AM 38.4200 -110.0883 241° Southwest 392 451 34,600 -1,380 Descending Denver Center
11:19AM 38.3889 -110.1686 244° Southwest 392 451 33,700 -1,380 Descending Salt Lake Center
11:19AM 38.3708 -110.2042 237° Southwest 388 447 33,200 -1,200 Descending Denver Center
11:20AM 38.3436 -110.3514 257° West 398 458 32,100 -600 Descending Denver Center
11:21AM 38.3472 -110.4886 272° West 405 466 32,000 -60 Descending Denver Center
11:22AM 38.3486 -110.6267 271° West 408 470 32,000  Level Denver Center
11:23AM 38.3514 -110.7433 272° West 407 468 32,000  Level Salt Lake Center
11:24AM 38.3506 -110.8792 270° West 404 465 32,000  Level Salt Lake Center
11:25AM 38.3342 -111.0178 261° West 399 459 32,000  Level Salt Lake Center
11:26AM 38.2689 -111.1300 233° Southwest 392 451 32,000  Level Salt Lake Center
11:27AM 38.2064 -111.2425 235° Southwest 391 450 32,000 -240 Level Salt Lake Center
11:28AM 38.1292 -111.3833 235° Southwest 402 463 31,600 -600 Descending Salt Lake Center
11:29AM 38.0658 -111.4964 235° Southwest 396 456 30,800 -720 Descending Salt Lake Center
11:30AM 38.0039 -111.6111 236° Southwest 395 455 30,200 -420 Descending Salt Lake Center
11:31AM 37.9389 -111.7253 234° Southwest 398 458 30,000 -660 Descending Salt Lake Center
11:32AM 37.8811 -111.8464 239° Southwest 401 461 28,900 -1,020 Descending Salt Lake Center
11:33AM 37.8425 -111.9814 250° West 407 468 28,000 -480 Descending Salt Lake Center
11:34AM 37.8044 -112.1139 250° West 404 465 28,000  Level Salt Lake Center
11:35AM 37.7350 -112.2503 237° Southwest 388 447 28,000  Level Salt Lake Center
11:36AM 37.6689 -112.3553 232° Southwest 384 442 28,000  Level Salt Lake Center
11:37AM 37.6022 -112.4636 232° Southwest 387 445 28,000  Level Salt Lake Center
11:38AM 37.5353 -112.5725 232° Southwest 389 448 28,000  Level Salt Lake Center
11:39AM 37.4686 -112.6778 231° Southwest 384 442 28,000  Level Salt Lake Center
11:40AM 37.4028 -112.7836 232° Southwest 380 437 28,000  Level Salt Lake Center
11:41AM 37.3364 -112.8883 231° Southwest 379 436 28,000  Level Salt Lake Center
11:42AM 37.2697 -112.9928 231° Southwest 380 437 28,000  Level Salt Lake Center
11:43AM 37.2053 -113.0964 232° Southwest 378 435 28,000  Level Salt Lake Center
11:44AM 37.1264 -113.2194 231° Southwest 378 435 28,000  Level Los Angeles Center
11:45AM 37.0614 -113.3250 232° Southwest 380 437 28,000 -60 Level Salt Lake Center
11:46AM 36.9933 -113.4297 231° Southwest 385 443 27,900 -540 Descending Salt Lake Center
11:48AM 36.8853 -113.5200 214° Southwest 391 450 26,800 -1,140 Descending Los Angeles Center
11:49AM 36.7939 -113.5925 212° Southwest 391 450 25,400 -1,260 Descending Los Angeles Center
11:50AM 36.7067 -113.6619 213° Southwest 376 433 24,200 -720 Descending Los Angeles Center
11:51AM 36.6303 -113.7222 212° Southwest 331 381 24,000 -960 Descending Los Angeles Center
11:52AM 36.5414 -113.8031 216° Southwest 328 377 22,300 -1,740 Descending Los Angeles Center
11:53AM 36.4953 -113.8800 233° Southwest 321 369 20,500 -1,620 Descending Los Angeles Center
11:54AM 36.4253 -113.9811 229° Southwest 321 369 19,000 -2,040 Descending Los Angeles Center
11:55AM 36.3978 -114.0531 245° Southwest 312 359 16,500 -2,760 Descending Los Angeles Center
11:56AM 36.4000 -114.1781 271° West 352 405 13,900 -2,040 Descending Los Angeles Center
11:57AM 36.3639 -114.2975 249° West 343 395 12,400 -600 Descending Los Angeles Center
11:59AM 36.2828 -114.4669 239° Southwest 287 330 12,100 -180 Descending Los Angeles Center
11:59AM 36.2708 -114.4775 215° Southwest 289 333 12,100 -600 Level Los Angeles Center
12:00PM 36.2339 -114.5292 228° Southwest 251 289 11,500 -720 Descending Los Angeles Center
12:00PM 36.2225 -114.5369 209° Southwest 248 285 11,400 -1,020 Descending Los Angeles Center
12:01PM 36.1864 -114.5878 229° Southwest 238 274 10,500 -840 Descending Los Angeles Center
12:01PM 36.1775 -114.5947 212° Southwest 236 272 10,400 -1,200 Descending Los Angeles Center
12:02PM 36.1478 -114.6383 230° Southwest 228 262 9,400 -1,380 Descending Los Angeles Center
12:02PM 36.1161 -114.6728 221° Southwest 228 262 8,700 -1,080 Descending Los Angeles Center
12:03PM 36.0967 -114.7008 229° Southwest 223 257 8,200 -900 Descending Los Angeles Center
12:03PM 36.0694 -114.7411 230° Southwest 220 253 7,800 -720 Descending Los Angeles Center
12:04PM 36.0736 -114.7725 279° West 216 249 7,400 -600 Descending Los Angeles Center
12:05PM 36.0711 -114.7994 263° West 214 246 7,200 -480 Descending Los Angeles Center
12:05PM 36.0736 -114.8311 276° West 183 211 7,000 -960 Descending Los Angeles Center
12:06PM 36.0733 -114.8789 270° West 153 176 6,100 -900 Descending Los Angeles Center
12:07PM 36.0731 -114.9186 270° West 165 190 5,400 -840 Descending Los Angeles Center
12:08PM 36.0725 -114.9722 269° West 157 181 4,500 -1,020 Descending Los Angeles Center
12:08PM 36.0731 -114.9961 272° West 158 182 4,100 -1,020 Descending Los Angeles Center
12:09PM 36.0728 -115.0372 270° West 157 181 3,500 -840 Descending Los Angeles Center
12:09PM 36.0739 -115.0492 277° West 150 173 3,300 -780 Descending Los Angeles Center
12:10PM 36.0728 -115.0856 268° West 151 174 2,700 -840 Descending Los Angeles Center
12:10PM 36.0736 -115.0972 275° West 138 159 2,500 -720 Descending Los Angeles Center
12:11PM 36.0728 -115.1336 268° West 145 167 2,000 -660 Descending Los Angeles Center
12:13PM 36.0667 -115.1500 219° Southwest  Level FlightAware Approximate